sensor_id;sensor_type;location;lat;lon;timestamp;P1;durP1;ratioP1;P2;durP2;ratioP2
59233;SDS011;60776;51.702;7.462;2023-07-08T00:01:14;2.03;;;1.75;;
59233;SDS011;60776;51.702;7.462;2023-07-08T00:03:41;3.42;;;1.80;;
59233;SDS011;60776;51.702;7.462;2023-07-08T00:06:16;2.70;;;1.90;;
59233;SDS011;60776;51.702;7.462;2023-07-08T00:08:49;2.25;;;2.05;;
59233;SDS011;60776;51.702;7.462;2023-07-08T00:11:15;3.63;;;2.40;;
59233;SDS011;60776;51.702;7.462;2023-07-08T00:13:41;2.40;;;2.20;;
59233;SDS011;60776;51.702;7.462;2023-07-08T00:16:24;2.08;;;1.88;;
59233;SDS011;60776;51.702;7.462;2023-07-08T00:18:50;2.80;;;1.65;;
59233;SDS011;60776;51.702;7.462;2023-07-08T00:21:16;2.97;;;1.77;;
59233;SDS011;60776;51.702;7.462;2023-07-08T00:23:43;1.92;;;1.83;;
59233;SDS011;60776;51.702;7.462;2023-07-08T00:26:13;3.90;;;2.10;;
59233;SDS011;60776;51.702;7.462;2023-07-08T00:28:52;3.13;;;2.60;;
59233;SDS011;60776;51.702;7.462;2023-07-08T00:31:19;3.25;;;2.13;;
59233;SDS011;60776;51.702;7.462;2023-07-08T00:33:57;3.15;;;2.28;;
59233;SDS011;60776;51.702;7.462;2023-07-08T00:36:24;3.20;;;2.40;;
59233;SDS011;60776;51.702;7.462;2023-07-08T00:38:51;2.63;;;2.40;;
59233;SDS011;60776;51.702;7.462;2023-07-08T00:41:30;2.88;;;2.20;;
59233;SDS011;60776;51.702;7.462;2023-07-08T00:43:58;2.85;;;2.65;;
59233;SDS011;60776;51.702;7.462;2023-07-08T00:51:37;2.95;;;2.17;;
59233;SDS011;60776;51.702;7.462;2023-07-08T00:54:14;2.88;;;2.42;;
59233;SDS011;60776;51.702;7.462;2023-07-08T00:56:44;3.22;;;2.28;;
59233;SDS011;60776;51.702;7.462;2023-07-08T00:59:29;3.10;;;2.50;;
59233;SDS011;60776;51.702;7.462;2023-07-08T01:02:00;4.78;;;2.70;;
59233;SDS011;60776;51.702;7.462;2023-07-08T01:05:16;3.08;;;2.50;;
59233;SDS011;60776;51.702;7.462;2023-07-08T01:07:27;2.65;;;2.33;;
59233;SDS011;60776;51.702;7.462;2023-07-08T01:09:57;2.72;;;2.53;;
59233;SDS011;60776;51.702;7.462;2023-07-08T01:12:27;3.85;;;2.65;;
59233;SDS011;60776;51.702;7.462;2023-07-08T01:14:56;3.72;;;2.40;;
59233;SDS011;60776;51.702;7.462;2023-07-08T01:17:25;2.30;;;1.90;;
59233;SDS011;60776;51.702;7.462;2023-07-08T01:19:57;3.40;;;2.33;;
59233;SDS011;60776;51.702;7.462;2023-07-08T01:22:24;2.40;;;2.20;;
59233;SDS011;60776;51.702;7.462;2023-07-08T01:24:49;2.65;;;2.45;;
59233;SDS011;60776;51.702;7.462;2023-07-08T01:27:16;2.92;;;2.63;;
59233;SDS011;60776;51.702;7.462;2023-07-08T01:29:44;3.03;;;2.22;;
59233;SDS011;60776;51.702;7.462;2023-07-08T01:32:12;2.55;;;2.10;;
59233;SDS011;60776;51.702;7.462;2023-07-08T01:34:43;2.60;;;2.20;;
59233;SDS011;60776;51.702;7.462;2023-07-08T01:37:24;7.45;;;2.47;;
59233;SDS011;60776;51.702;7.462;2023-07-08T01:39:56;3.00;;;2.65;;
59233;SDS011;60776;51.702;7.462;2023-07-08T01:42:24;3.30;;;2.53;;
59233;SDS011;60776;51.702;7.462;2023-07-08T01:44:52;2.60;;;2.25;;
59233;SDS011;60776;51.702;7.462;2023-07-08T01:47:20;3.72;;;2.08;;
59233;SDS011;60776;51.702;7.462;2023-07-08T01:49:59;4.30;;;2.22;;
59233;SDS011;60776;51.702;7.462;2023-07-08T01:52:27;2.40;;;2.20;;
59233;SDS011;60776;51.702;7.462;2023-07-08T01:55:01;2.47;;;2.28;;
59233;SDS011;60776;51.702;7.462;2023-07-08T01:57:26;2.40;;;2.20;;
59233;SDS011;60776;51.702;7.462;2023-07-08T01:59:52;2.42;;;2.22;;
59233;SDS011;60776;51.702;7.462;2023-07-08T02:02:21;2.35;;;2.03;;
59233;SDS011;60776;51.702;7.462;2023-07-08T02:04:49;2.67;;;2.10;;
59233;SDS011;60776;51.702;7.462;2023-07-08T02:07:25;2.17;;;1.98;;
59233;SDS011;60776;51.702;7.462;2023-07-08T02:09:58;3.35;;;2.50;;
59233;SDS011;60776;51.702;7.462;2023-07-08T02:12:24;2.80;;;2.60;;
59233;SDS011;60776;51.702;7.462;2023-07-08T02:14:55;3.53;;;2.55;;
59233;SDS011;60776;51.702;7.462;2023-07-08T02:17:22;3.08;;;2.63;;
59233;SDS011;60776;51.702;7.462;2023-07-08T02:19:48;3.38;;;2.80;;
59233;SDS011;60776;51.702;7.462;2023-07-08T02:22:14;3.97;;;2.67;;
59233;SDS011;60776;51.702;7.462;2023-07-08T02:24:39;3.20;;;2.47;;
59233;SDS011;60776;51.702;7.462;2023-07-08T02:27:13;3.83;;;2.72;;
59233;SDS011;60776;51.702;7.462;2023-07-08T02:29:38;2.55;;;2.17;;
59233;SDS011;60776;51.702;7.462;2023-07-08T02:32:04;3.30;;;2.53;;
59233;SDS011;60776;51.702;7.462;2023-07-08T02:34:30;3.50;;;2.78;;
59233;SDS011;60776;51.702;7.462;2023-07-08T02:37:03;3.20;;;2.90;;
59233;SDS011;60776;51.702;7.462;2023-07-08T02:39:29;5.22;;;3.08;;
59233;SDS011;60776;51.702;7.462;2023-07-08T02:41:55;2.83;;;2.30;;
59233;SDS011;60776;51.702;7.462;2023-07-08T02:44:21;3.70;;;3.03;;
59233;SDS011;60776;51.702;7.462;2023-07-08T02:46:47;3.08;;;2.78;;
59233;SDS011;60776;51.702;7.462;2023-07-08T02:49:13;3.38;;;2.90;;
59233;SDS011;60776;51.702;7.462;2023-07-08T02:51:38;2.60;;;2.40;;
59233;SDS011;60776;51.702;7.462;2023-07-08T02:54:04;5.47;;;3.08;;
59233;SDS011;60776;51.702;7.462;2023-07-08T02:56:32;3.65;;;2.90;;
59233;SDS011;60776;51.702;7.462;2023-07-08T02:59:00;2.97;;;2.67;;
59233;SDS011;60776;51.702;7.462;2023-07-08T03:01:26;4.80;;;3.30;;
59233;SDS011;60776;51.702;7.462;2023-07-08T03:03:54;3.42;;;3.13;;
59233;SDS011;60776;51.702;7.462;2023-07-08T03:06:23;3.75;;;3.20;;
59233;SDS011;60776;51.702;7.462;2023-07-08T03:08:48;2.72;;;2.53;;
59233;SDS011;60776;51.702;7.462;2023-07-08T03:11:17;3.13;;;2.83;;
59233;SDS011;60776;51.702;7.462;2023-07-08T03:13:42;3.67;;;2.75;;
59233;SDS011;60776;51.702;7.462;2023-07-08T03:16:10;3.42;;;2.72;;
59233;SDS011;60776;51.702;7.462;2023-07-08T03:18:39;2.92;;;2.72;;
59233;SDS011;60776;51.702;7.462;2023-07-08T03:21:11;3.38;;;3.08;;
59233;SDS011;60776;51.702;7.462;2023-07-08T03:23:38;3.13;;;2.58;;
59233;SDS011;60776;51.702;7.462;2023-07-08T03:26:04;3.50;;;2.70;;
59233;SDS011;60776;51.702;7.462;2023-07-08T03:28:29;3.10;;;2.80;;
59233;SDS011;60776;51.702;7.462;2023-07-08T03:30:57;3.72;;;2.35;;
59233;SDS011;60776;51.702;7.462;2023-07-08T03:33:23;3.20;;;2.55;;
59233;SDS011;60776;51.702;7.462;2023-07-08T03:35:49;3.03;;;2.83;;
59233;SDS011;60776;51.702;7.462;2023-07-08T03:38:19;3.45;;;3.00;;
59233;SDS011;60776;51.702;7.462;2023-07-08T03:40:47;4.63;;;2.72;;
59233;SDS011;60776;51.702;7.462;2023-07-08T03:43:13;4.25;;;3.50;;
59233;SDS011;60776;51.702;7.462;2023-07-08T03:45:38;3.13;;;2.83;;
59233;SDS011;60776;51.702;7.462;2023-07-08T03:48:14;3.85;;;3.17;;
59233;SDS011;60776;51.702;7.462;2023-07-08T03:50:40;3.78;;;3.42;;
59233;SDS011;60776;51.702;7.462;2023-07-08T03:53:05;5.93;;;3.53;;
59233;SDS011;60776;51.702;7.462;2023-07-08T03:55:33;5.53;;;3.35;;
59233;SDS011;60776;51.702;7.462;2023-07-08T03:57:59;4.25;;;3.30;;
59233;SDS011;60776;51.702;7.462;2023-07-08T04:00:32;5.15;;;3.00;;
59233;SDS011;60776;51.702;7.462;2023-07-08T04:03:05;3.15;;;2.85;;
59233;SDS011;60776;51.702;7.462;2023-07-08T04:05:34;3.15;;;2.47;;
59233;SDS011;60776;51.702;7.462;2023-07-08T04:08:02;6.18;;;2.85;;
59233;SDS011;60776;51.702;7.462;2023-07-08T04:10:28;3.78;;;3.20;;
59233;SDS011;60776;51.702;7.462;2023-07-08T04:12:54;4.60;;;2.67;;
59233;SDS011;60776;51.702;7.462;2023-07-08T04:15:19;3.28;;;2.97;;
59233;SDS011;60776;51.702;7.462;2023-07-08T04:17:53;3.97;;;2.75;;
59233;SDS011;60776;51.702;7.462;2023-07-08T04:20:20;4.65;;;2.72;;
59233;SDS011;60776;51.702;7.462;2023-07-08T04:22:54;4.18;;;2.83;;
59233;SDS011;60776;51.702;7.462;2023-07-08T04:25:27;3.55;;;2.65;;
59233;SDS011;60776;51.702;7.462;2023-07-08T04:27:53;2.75;;;2.28;;
59233;SDS011;60776;51.702;7.462;2023-07-08T04:30:20;3.40;;;3.08;;
59233;SDS011;60776;51.702;7.462;2023-07-08T04:32:56;3.25;;;2.95;;
59233;SDS011;60776;51.702;7.462;2023-07-08T04:35:22;3.20;;;2.63;;
59233;SDS011;60776;51.702;7.462;2023-07-08T04:37:47;2.83;;;2.50;;
59233;SDS011;60776;51.702;7.462;2023-07-08T04:40:17;3.17;;;2.50;;
59233;SDS011;60776;51.702;7.462;2023-07-08T04:42:53;6.07;;;2.70;;
59233;SDS011;60776;51.702;7.462;2023-07-08T04:45:19;2.33;;;2.13;;
59233;SDS011;60776;51.702;7.462;2023-07-08T04:47:45;3.40;;;2.70;;
59233;SDS011;60776;51.702;7.462;2023-07-08T04:50:17;3.08;;;2.40;;
59233;SDS011;60776;51.702;7.462;2023-07-08T04:52:42;3.00;;;2.70;;
59233;SDS011;60776;51.702;7.462;2023-07-08T04:55:08;4.82;;;2.63;;
59233;SDS011;60776;51.702;7.462;2023-07-08T04:57:34;2.97;;;2.55;;
59233;SDS011;60776;51.702;7.462;2023-07-08T05:00:00;4.28;;;2.50;;
59233;SDS011;60776;51.702;7.462;2023-07-08T05:02:26;2.88;;;2.60;;
59233;SDS011;60776;51.702;7.462;2023-07-08T05:04:52;3.92;;;2.33;;
59233;SDS011;60776;51.702;7.462;2023-07-08T05:07:17;2.65;;;2.45;;
59233;SDS011;60776;51.702;7.462;2023-07-08T05:09:43;2.83;;;2.50;;
59233;SDS011;60776;51.702;7.462;2023-07-08T05:12:08;3.38;;;2.20;;
59233;SDS011;60776;51.702;7.462;2023-07-08T05:14:34;4.07;;;2.25;;
59233;SDS011;60776;51.702;7.462;2023-07-08T05:17:00;4.57;;;2.50;;
59233;SDS011;60776;51.702;7.462;2023-07-08T05:19:26;3.78;;;2.58;;
59233;SDS011;60776;51.702;7.462;2023-07-08T05:21:52;3.33;;;2.22;;
59233;SDS011;60776;51.702;7.462;2023-07-08T05:24:18;3.30;;;2.45;;
59233;SDS011;60776;51.702;7.462;2023-07-08T05:26:44;2.05;;;1.95;;
59233;SDS011;60776;51.702;7.462;2023-07-08T05:29:09;2.30;;;2.08;;
59233;SDS011;60776;51.702;7.462;2023-07-08T05:31:35;2.80;;;2.17;;
59233;SDS011;60776;51.702;7.462;2023-07-08T05:34:01;4.95;;;2.33;;
59233;SDS011;60776;51.702;7.462;2023-07-08T05:36:26;2.78;;;2.30;;
59233;SDS011;60776;51.702;7.462;2023-07-08T05:38:52;4.47;;;2.55;;
59233;SDS011;60776;51.702;7.462;2023-07-08T05:41:18;4.50;;;2.30;;
59233;SDS011;60776;51.702;7.462;2023-07-08T05:43:43;3.25;;;2.08;;
59233;SDS011;60776;51.702;7.462;2023-07-08T05:46:09;3.63;;;2.42;;
59233;SDS011;60776;51.702;7.462;2023-07-08T05:48:35;3.45;;;1.90;;
59233;SDS011;60776;51.702;7.462;2023-07-08T05:51:01;2.95;;;2.20;;
59233;SDS011;60776;51.702;7.462;2023-07-08T05:53:27;2.00;;;1.90;;
59233;SDS011;60776;51.702;7.462;2023-07-08T05:55:53;2.28;;;2.08;;
59233;SDS011;60776;51.702;7.462;2023-07-08T05:58:18;2.92;;;2.60;;
59233;SDS011;60776;51.702;7.462;2023-07-08T06:00:44;2.83;;;2.50;;
59233;SDS011;60776;51.702;7.462;2023-07-08T06:03:10;4.35;;;2.20;;
59233;SDS011;60776;51.702;7.462;2023-07-08T06:05:36;3.05;;;2.03;;
59233;SDS011;60776;51.702;7.462;2023-07-08T06:08:02;3.00;;;2.03;;
59233;SDS011;60776;51.702;7.462;2023-07-08T06:10:28;5.03;;;2.17;;
59233;SDS011;60776;51.702;7.462;2023-07-08T06:12:54;3.20;;;2.28;;
59233;SDS011;60776;51.702;7.462;2023-07-08T06:15:20;2.45;;;2.13;;
59233;SDS011;60776;51.702;7.462;2023-07-08T06:17:45;3.80;;;1.98;;
59233;SDS011;60776;51.702;7.462;2023-07-08T06:20:11;3.40;;;2.42;;
59233;SDS011;60776;51.702;7.462;2023-07-08T06:22:37;3.03;;;2.45;;
59233;SDS011;60776;51.702;7.462;2023-07-08T06:25:02;2.75;;;2.20;;
59233;SDS011;60776;51.702;7.462;2023-07-08T06:27:29;3.53;;;2.05;;
59233;SDS011;60776;51.702;7.462;2023-07-08T06:29:54;2.40;;;2.20;;
59233;SDS011;60776;51.702;7.462;2023-07-08T06:32:20;2.30;;;2.10;;
59233;SDS011;60776;51.702;7.462;2023-07-08T06:34:48;2.70;;;2.28;;
59233;SDS011;60776;51.702;7.462;2023-07-08T06:37:16;2.60;;;2.15;;
59233;SDS011;60776;51.702;7.462;2023-07-08T06:39:42;2.53;;;2.17;;
59233;SDS011;60776;51.702;7.462;2023-07-08T06:42:07;4.38;;;2.70;;
59233;SDS011;60776;51.702;7.462;2023-07-08T06:44:33;2.50;;;2.30;;
59233;SDS011;60776;51.702;7.462;2023-07-08T06:46:58;6.18;;;2.60;;
59233;SDS011;60776;51.702;7.462;2023-07-08T06:49:24;2.50;;;2.30;;
59233;SDS011;60776;51.702;7.462;2023-07-08T06:51:50;3.15;;;2.22;;
59233;SDS011;60776;51.702;7.462;2023-07-08T06:54:15;3.53;;;2.30;;
59233;SDS011;60776;51.702;7.462;2023-07-08T06:56:41;2.95;;;2.28;;
59233;SDS011;60776;51.702;7.462;2023-07-08T06:59:09;3.58;;;2.65;;
59233;SDS011;60776;51.702;7.462;2023-07-08T07:01:40;2.95;;;2.60;;
59233;SDS011;60776;51.702;7.462;2023-07-08T07:04:06;2.85;;;2.58;;
59233;SDS011;60776;51.702;7.462;2023-07-08T07:06:31;3.22;;;2.55;;
59233;SDS011;60776;51.702;7.462;2023-07-08T07:08:57;2.60;;;2.40;;
59233;SDS011;60776;51.702;7.462;2023-07-08T07:11:22;3.42;;;2.70;;
59233;SDS011;60776;51.702;7.462;2023-07-08T07:13:48;3.05;;;2.72;;
59233;SDS011;60776;51.702;7.462;2023-07-08T07:16:17;3.17;;;2.60;;
59233;SDS011;60776;51.702;7.462;2023-07-08T07:18:42;2.63;;;2.42;;
59233;SDS011;60776;51.702;7.462;2023-07-08T07:21:08;3.08;;;2.78;;
59233;SDS011;60776;51.702;7.462;2023-07-08T07:23:35;4.00;;;2.88;;
59233;SDS011;60776;51.702;7.462;2023-07-08T07:26:00;3.72;;;2.97;;
59233;SDS011;60776;51.702;7.462;2023-07-08T07:28:28;4.55;;;2.80;;
59233;SDS011;60776;51.702;7.462;2023-07-08T07:30:57;4.25;;;2.80;;
59233;SDS011;60776;51.702;7.462;2023-07-08T07:33:24;3.20;;;2.75;;
59233;SDS011;60776;51.702;7.462;2023-07-08T07:35:50;3.70;;;2.85;;
59233;SDS011;60776;51.702;7.462;2023-07-08T07:38:24;3.42;;;3.13;;
59233;SDS011;60776;51.702;7.462;2023-07-08T07:40:54;5.00;;;2.95;;
59233;SDS011;60776;51.702;7.462;2023-07-08T07:43:21;4.35;;;2.78;;
59233;SDS011;60776;51.702;7.462;2023-07-08T07:45:50;2.85;;;2.63;;
59233;SDS011;60776;51.702;7.462;2023-07-08T07:48:17;3.88;;;2.95;;
59233;SDS011;60776;51.702;7.462;2023-07-08T07:50:46;3.22;;;2.92;;
59233;SDS011;60776;51.702;7.462;2023-07-08T07:53:18;3.65;;;2.97;;
59233;SDS011;60776;51.702;7.462;2023-07-08T07:55:54;4.50;;;2.95;;
59233;SDS011;60776;51.702;7.462;2023-07-08T07:58:21;2.97;;;2.78;;
59233;SDS011;60776;51.702;7.462;2023-07-08T08:00:47;3.60;;;3.05;;
59233;SDS011;60776;51.702;7.462;2023-07-08T08:03:20;2.85;;;2.65;;
59233;SDS011;60776;51.702;7.462;2023-07-08T08:05:49;4.07;;;3.67;;
59233;SDS011;60776;51.702;7.462;2023-07-08T08:08:22;4.32;;;3.25;;
59233;SDS011;60776;51.702;7.462;2023-07-08T08:10:55;3.72;;;3.42;;
59233;SDS011;60776;51.702;7.462;2023-07-08T08:13:24;5.40;;;3.05;;
59233;SDS011;60776;51.702;7.462;2023-07-08T08:15:57;3.47;;;3.10;;
59233;SDS011;60776;51.702;7.462;2023-07-08T08:18:26;4.05;;;3.20;;
59233;SDS011;60776;51.702;7.462;2023-07-08T08:20:51;3.50;;;3.20;;
59233;SDS011;60776;51.702;7.462;2023-07-08T08:23:32;4.15;;;3.75;;
59233;SDS011;60776;51.702;7.462;2023-07-08T08:26:00;3.25;;;2.95;;
59233;SDS011;60776;51.702;7.462;2023-07-08T08:28:26;4.68;;;3.28;;
59233;SDS011;60776;51.702;7.462;2023-07-08T08:30:51;3.35;;;3.05;;
59233;SDS011;60776;51.702;7.462;2023-07-08T08:33:18;4.38;;;2.83;;
59233;SDS011;60776;51.702;7.462;2023-07-08T08:35:51;3.47;;;3.20;;
59233;SDS011;60776;51.702;7.462;2023-07-08T08:38:24;3.72;;;3.28;;
59233;SDS011;60776;51.702;7.462;2023-07-08T08:40:53;4.15;;;3.50;;
59233;SDS011;60776;51.702;7.462;2023-07-08T08:43:29;5.55;;;3.65;;
59233;SDS011;60776;51.702;7.462;2023-07-08T08:46:16;3.50;;;3.20;;
59233;SDS011;60776;51.702;7.462;2023-07-08T08:51:49;3.60;;;3.30;;
59233;SDS011;60776;51.702;7.462;2023-07-08T08:54:16;4.13;;;3.10;;
59233;SDS011;60776;51.702;7.462;2023-07-08T08:59:28;4.22;;;3.92;;
59233;SDS011;60776;51.702;7.462;2023-07-08T09:02:00;4.05;;;3.58;;
59233;SDS011;60776;51.702;7.462;2023-07-08T09:04:32;4.30;;;3.92;;
59233;SDS011;60776;51.702;7.462;2023-07-08T09:07:05;5.07;;;3.83;;
59233;SDS011;60776;51.702;7.462;2023-07-08T09:12:04;3.88;;;3.58;;
59233;SDS011;60776;51.702;7.462;2023-07-08T09:14:34;4.40;;;3.65;;
59233;SDS011;60776;51.702;7.462;2023-07-08T09:17:09;3.78;;;3.40;;
59233;SDS011;60776;51.702;7.462;2023-07-08T09:19:41;4.03;;;3.67;;
59233;SDS011;60776;51.702;7.462;2023-07-08T09:22:17;4.68;;;3.20;;
59233;SDS011;60776;51.702;7.462;2023-07-08T09:24:58;4.45;;;4.05;;
59233;SDS011;60776;51.702;7.462;2023-07-08T09:27:33;3.45;;;3.20;;
59233;SDS011;60776;51.702;7.462;2023-07-08T09:29:59;3.75;;;3.40;;
59233;SDS011;60776;51.702;7.462;2023-07-08T09:32:26;5.07;;;3.90;;
59233;SDS011;60776;51.702;7.462;2023-07-08T09:34:57;4.18;;;3.83;;
59233;SDS011;60776;51.702;7.462;2023-07-08T09:37:34;4.32;;;4.03;;
59233;SDS011;60776;51.702;7.462;2023-07-08T09:40:04;4.20;;;3.80;;
59233;SDS011;60776;51.702;7.462;2023-07-08T09:42:50;5.45;;;4.57;;
59233;SDS011;60776;51.702;7.462;2023-07-08T09:45:23;4.95;;;3.97;;
59233;SDS011;60776;51.702;7.462;2023-07-08T09:47:53;4.18;;;3.88;;
59233;SDS011;60776;51.702;7.462;2023-07-08T09:50:25;4.45;;;4.05;;
59233;SDS011;60776;51.702;7.462;2023-07-08T09:52:58;4.55;;;4.15;;
59233;SDS011;60776;51.702;7.462;2023-07-08T09:55:27;4.47;;;4.18;;
59233;SDS011;60776;51.702;7.462;2023-07-08T09:57:54;4.93;;;4.53;;
59233;SDS011;60776;51.702;7.462;2023-07-08T10:00:37;4.88;;;3.80;;
59233;SDS011;60776;51.702;7.462;2023-07-08T10:03:32;4.55;;;4.15;;
59233;SDS011;60776;51.702;7.462;2023-07-08T10:06:24;5.18;;;4.20;;
59233;SDS011;60776;51.702;7.462;2023-07-08T10:08:59;4.68;;;3.95;;
59233;SDS011;60776;51.702;7.462;2023-07-08T10:11:46;5.40;;;4.70;;
59233;SDS011;60776;51.702;7.462;2023-07-08T10:14:49;5.20;;;4.70;;
59233;SDS011;60776;51.702;7.462;2023-07-08T10:17:15;4.30;;;4.00;;
59233;SDS011;60776;51.702;7.462;2023-07-08T10:19:44;4.82;;;4.43;;
59233;SDS011;60776;51.702;7.462;2023-07-08T10:27:52;4.85;;;4.30;;
59233;SDS011;60776;51.702;7.462;2023-07-08T10:30:23;4.88;;;4.47;;
59233;SDS011;60776;51.702;7.462;2023-07-08T10:33:01;4.70;;;4.40;;
59233;SDS011;60776;51.702;7.462;2023-07-08T10:38:33;5.38;;;4.43;;
59233;SDS011;60776;51.702;7.462;2023-07-08T10:41:11;7.55;;;5.50;;
59233;SDS011;60776;51.702;7.462;2023-07-08T10:43:50;5.30;;;4.82;;
59233;SDS011;60776;51.702;7.462;2023-07-08T10:49:58;5.72;;;4.60;;
59233;SDS011;60776;51.702;7.462;2023-07-08T10:58:23;4.63;;;4.22;;
59233;SDS011;60776;51.702;7.462;2023-07-08T11:06:44;5.03;;;4.60;;
59233;SDS011;60776;51.702;7.462;2023-07-08T11:09:27;5.25;;;4.75;;
59233;SDS011;60776;51.702;7.462;2023-07-08T11:12:01;6.70;;;5.07;;
59233;SDS011;60776;51.702;7.462;2023-07-08T11:14:40;4.55;;;4.18;;
59233;SDS011;60776;51.702;7.462;2023-07-08T11:17:49;5.13;;;4.72;;
59233;SDS011;60776;51.702;7.462;2023-07-08T11:22:36;6.18;;;5.10;;
59233;SDS011;60776;51.702;7.462;2023-07-08T11:25:08;5.63;;;5.13;;
59233;SDS011;60776;51.702;7.462;2023-07-08T11:27:43;5.72;;;4.80;;
59233;SDS011;60776;51.702;7.462;2023-07-08T11:30:16;5.20;;;4.70;;
59233;SDS011;60776;51.702;7.462;2023-07-08T11:32:47;5.15;;;4.65;;
59233;SDS011;60776;51.702;7.462;2023-07-08T11:35:19;5.82;;;5.13;;
59233;SDS011;60776;51.702;7.462;2023-07-08T11:37:59;5.00;;;4.53;;
59233;SDS011;60776;51.702;7.462;2023-07-08T11:40:26;5.53;;;5.03;;
59233;SDS011;60776;51.702;7.462;2023-07-08T11:42:54;5.53;;;5.13;;
59233;SDS011;60776;51.702;7.462;2023-07-08T11:45:38;4.93;;;4.43;;
59233;SDS011;60776;51.702;7.462;2023-07-08T11:48:06;5.57;;;5.18;;
59233;SDS011;60776;51.702;7.462;2023-07-08T11:50:50;6.00;;;4.68;;
59233;SDS011;60776;51.702;7.462;2023-07-08T11:55:59;5.53;;;4.63;;
59233;SDS011;60776;51.702;7.462;2023-07-08T12:03:48;5.03;;;4.47;;
59233;SDS011;60776;51.702;7.462;2023-07-08T12:08:52;4.95;;;4.55;;
59233;SDS011;60776;51.702;7.462;2023-07-08T12:11:19;5.70;;;4.93;;
59233;SDS011;60776;51.702;7.462;2023-07-08T12:14:00;5.35;;;4.85;;
59233;SDS011;60776;51.702;7.462;2023-07-08T12:16:29;4.50;;;4.20;;
59233;SDS011;60776;51.702;7.462;2023-07-08T12:18:56;6.13;;;4.93;;
59233;SDS011;60776;51.702;7.462;2023-07-08T12:21:24;4.75;;;4.38;;
59233;SDS011;60776;51.702;7.462;2023-07-08T12:23:52;4.40;;;4.00;;
59233;SDS011;60776;51.702;7.462;2023-07-08T12:26:18;5.43;;;4.38;;
59233;SDS011;60776;51.702;7.462;2023-07-08T12:28:43;4.72;;;4.32;;
59233;SDS011;60776;51.702;7.462;2023-07-08T12:31:13;4.72;;;4.20;;
59233;SDS011;60776;51.702;7.462;2023-07-08T12:33:46;7.82;;;4.40;;
59233;SDS011;60776;51.702;7.462;2023-07-08T12:36:17;4.65;;;4.25;;
59233;SDS011;60776;51.702;7.462;2023-07-08T12:38:50;4.90;;;4.50;;
59233;SDS011;60776;51.702;7.462;2023-07-08T12:41:22;5.53;;;4.60;;
59233;SDS011;60776;51.702;7.462;2023-07-08T12:43:56;4.20;;;3.88;;
59233;SDS011;60776;51.702;7.462;2023-07-08T12:46:23;5.13;;;4.22;;
59233;SDS011;60776;51.702;7.462;2023-07-08T12:48:51;6.38;;;4.40;;
59233;SDS011;60776;51.702;7.462;2023-07-08T12:51:18;4.30;;;3.88;;
59233;SDS011;60776;51.702;7.462;2023-07-08T12:53:46;3.85;;;3.55;;
59233;SDS011;60776;51.702;7.462;2023-07-08T12:56:12;4.90;;;3.80;;
59233;SDS011;60776;51.702;7.462;2023-07-08T12:58:48;6.65;;;4.30;;
59233;SDS011;60776;51.702;7.462;2023-07-08T13:01:22;5.10;;;4.22;;
59233;SDS011;60776;51.702;7.462;2023-07-08T13:03:50;6.72;;;4.85;;
59233;SDS011;60776;51.702;7.462;2023-07-08T13:06:20;6.28;;;4.43;;
59233;SDS011;60776;51.702;7.462;2023-07-08T13:08:50;5.43;;;4.32;;
59233;SDS011;60776;51.702;7.462;2023-07-08T13:11:17;6.57;;;4.32;;
59233;SDS011;60776;51.702;7.462;2023-07-08T13:13:48;4.80;;;4.22;;
59233;SDS011;60776;51.702;7.462;2023-07-08T13:16:28;4.40;;;3.88;;
59233;SDS011;60776;51.702;7.462;2023-07-08T13:18:57;5.05;;;4.53;;
59233;SDS011;60776;51.702;7.462;2023-07-08T13:21:30;6.80;;;4.80;;
59233;SDS011;60776;51.702;7.462;2023-07-08T13:24:00;4.80;;;4.28;;
59233;SDS011;60776;51.702;7.462;2023-07-08T13:26:29;6.68;;;4.55;;
59233;SDS011;60776;51.702;7.462;2023-07-08T13:29:01;5.65;;;4.47;;
59233;SDS011;60776;51.702;7.462;2023-07-08T13:31:37;4.90;;;4.43;;
59233;SDS011;60776;51.702;7.462;2023-07-08T13:34:07;3.95;;;3.65;;
59233;SDS011;60776;51.702;7.462;2023-07-08T13:36:45;5.65;;;5.15;;
59233;SDS011;60776;51.702;7.462;2023-07-08T13:39:29;6.03;;;5.07;;
59233;SDS011;60776;51.702;7.462;2023-07-08T13:42:08;5.45;;;4.95;;
59233;SDS011;60776;51.702;7.462;2023-07-08T13:44:44;4.93;;;4.38;;
59233;SDS011;60776;51.702;7.462;2023-07-08T13:47:18;5.75;;;4.55;;
59233;SDS011;60776;51.702;7.462;2023-07-08T13:50:05;6.50;;;5.18;;
59233;SDS011;60776;51.702;7.462;2023-07-08T13:53:00;6.45;;;5.20;;
59233;SDS011;60776;51.702;7.462;2023-07-08T13:55:33;6.22;;;4.80;;
59233;SDS011;60776;51.702;7.462;2023-07-08T13:58:06;6.53;;;4.80;;
59233;SDS011;60776;51.702;7.462;2023-07-08T14:00:35;5.00;;;4.43;;
59233;SDS011;60776;51.702;7.462;2023-07-08T14:03:09;5.15;;;4.65;;
59233;SDS011;60776;51.702;7.462;2023-07-08T14:05:39;4.60;;;4.13;;
59233;SDS011;60776;51.702;7.462;2023-07-08T14:08:15;7.10;;;5.05;;
59233;SDS011;60776;51.702;7.462;2023-07-08T14:10:43;5.47;;;4.45;;
59233;SDS011;60776;51.702;7.462;2023-07-08T14:13:11;5.60;;;4.95;;
59233;SDS011;60776;51.702;7.462;2023-07-08T14:15:44;5.30;;;4.53;;
59233;SDS011;60776;51.702;7.462;2023-07-08T14:18:18;7.47;;;5.05;;
59233;SDS011;60776;51.702;7.462;2023-07-08T14:20:46;6.90;;;4.90;;
59233;SDS011;60776;51.702;7.462;2023-07-08T14:23:19;5.40;;;4.13;;
59233;SDS011;60776;51.702;7.462;2023-07-08T14:25:48;7.00;;;4.72;;
59233;SDS011;60776;51.702;7.462;2023-07-08T14:28:14;5.35;;;4.60;;
59233;SDS011;60776;51.702;7.462;2023-07-08T14:30:54;6.13;;;4.47;;
59233;SDS011;60776;51.702;7.462;2023-07-08T14:33:23;5.28;;;4.22;;
59233;SDS011;60776;51.702;7.462;2023-07-08T14:35:57;9.05;;;4.43;;
59233;SDS011;60776;51.702;7.462;2023-07-08T14:38:25;5.28;;;4.72;;
59233;SDS011;60776;51.702;7.462;2023-07-08T14:41:00;4.60;;;4.20;;
59233;SDS011;60776;51.702;7.462;2023-07-08T14:43:30;5.45;;;4.40;;
59233;SDS011;60776;51.702;7.462;2023-07-08T14:46:00;4.13;;;3.83;;
59233;SDS011;60776;51.702;7.462;2023-07-08T14:48:31;5.05;;;4.10;;
59233;SDS011;60776;51.702;7.462;2023-07-08T14:51:06;8.10;;;4.18;;
59233;SDS011;60776;51.702;7.462;2023-07-08T14:53:32;6.35;;;3.70;;
59233;SDS011;60776;51.702;7.462;2023-07-08T14:56:08;4.10;;;3.70;;
59233;SDS011;60776;51.702;7.462;2023-07-08T14:58:52;5.97;;;5.07;;
59233;SDS011;60776;51.702;7.462;2023-07-08T15:01:27;5.97;;;5.10;;
59233;SDS011;60776;51.702;7.462;2023-07-08T15:03:55;7.15;;;5.40;;
59233;SDS011;60776;51.702;7.462;2023-07-08T15:06:29;6.95;;;5.60;;
59233;SDS011;60776;51.702;7.462;2023-07-08T15:08:57;6.05;;;5.45;;
59233;SDS011;60776;51.702;7.462;2023-07-08T15:11:22;7.25;;;5.07;;
59233;SDS011;60776;51.702;7.462;2023-07-08T15:13:59;7.30;;;5.95;;
59233;SDS011;60776;51.702;7.462;2023-07-08T15:16:35;5.60;;;5.05;;
59233;SDS011;60776;51.702;7.462;2023-07-08T15:19:08;7.32;;;4.95;;
59233;SDS011;60776;51.702;7.462;2023-07-08T15:21:35;6.45;;;4.78;;
59233;SDS011;60776;51.702;7.462;2023-07-08T15:24:09;5.80;;;5.15;;
59233;SDS011;60776;51.702;7.462;2023-07-08T15:26:37;5.97;;;4.72;;
59233;SDS011;60776;51.702;7.462;2023-07-08T15:32:10;5.75;;;5.25;;
59233;SDS011;60776;51.702;7.462;2023-07-08T15:34:41;5.82;;;5.25;;
59233;SDS011;60776;51.702;7.462;2023-07-08T15:37:14;6.35;;;5.40;;
59233;SDS011;60776;51.702;7.462;2023-07-08T15:39:42;6.53;;;5.45;;
59233;SDS011;60776;51.702;7.462;2023-07-08T15:42:17;6.35;;;4.88;;
59233;SDS011;60776;51.702;7.462;2023-07-08T15:44:50;7.63;;;5.25;;
59233;SDS011;60776;51.702;7.462;2023-07-08T15:47:17;6.55;;;5.43;;
59233;SDS011;60776;51.702;7.462;2023-07-08T15:49:43;7.78;;;5.45;;
59233;SDS011;60776;51.702;7.462;2023-07-08T15:52:25;5.47;;;4.97;;
59233;SDS011;60776;51.702;7.462;2023-07-08T15:54:50;6.43;;;5.07;;
59233;SDS011;60776;51.702;7.462;2023-07-08T15:57:16;5.72;;;5.13;;
59233;SDS011;60776;51.702;7.462;2023-07-08T15:59:42;5.50;;;5.00;;